Terminal Aerodrome Forecast
Issued by NWS Charleston, WV

Home | Current Version | Previous Version | Text Only | Print | Product List | Glossary On
Versions: 1 2 3 4 5 6 7 8 9 10 11 12 13 14 15 16 17 18 19 20 21 22 23
000
FTUS41 KRLX 041100
TAFPKB
TAF
KPKB 041129Z 0412/0512 00000KT 2SM RA BR OVC007
      TEMPO 0412/0414 3SM -RA SCT007 OVC013
     FM041400 00000KT 5SM -RA BR OVC008
     FM041900 30004KT 3SM -RAPL OVC010
     FM050200 33007KT 2SM -SNPL OVC008
     FM050300 33007KT 1SM -SN BR OVC008=

USA.gov is the U.S. government's official web portal to all federal, state and local government web resources and services.